Time;durP1;ratioP1;P1;durP2;ratioP2;P2;SDS_P1;SDS_P2;PMS_P1;PMS_P2;Temp;Humidity;BMP_temperature;BMP_pressure;BME280_temperature;BME280_humidity;BME280_pressure;Samples;Min_cycle;Max_cycle;Signal;HPM_P1;HPM_P2
2022/03/26 00:01:41;;;;;;;32.23;23.60;;;17.20;31.70;;;;;;5047290;28;20231;-45
2022/03/26 00:04:07;;;;;;;36.37;25.30;;;17.20;31.70;;;;;;5045361;28;20200;-44
2022/03/26 00:06:32;;;;;;;41.13;27.30;;;17.20;31.60;;;;;;5049332;28;20543;-44
2022/03/26 00:08:58;;;;;;;32.63;24.30;;;17.20;31.20;;;;;;5045291;28;20342;-48
2022/03/26 00:11:24;;;;;;;29.50;23.90;;;17.20;30.90;;;;;;5040781;28;20271;-44
2022/03/26 00:13:50;;;;;;;37.05;24.55;;;17.20;31.00;;;;;;5051217;28;20187;-47
2022/03/26 00:16:15;;;;;;;33.97;24.93;;;17.20;31.20;;;;;;5038210;28;20200;-44
2022/03/26 00:18:41;;;;;;;34.23;25.43;;;17.20;31.00;;;;;;5046302;28;20674;-44
2022/03/26 00:21:07;;;;;;;34.80;25.03;;;17.10;30.60;;;;;;5042900;28;20195;-46
2022/03/26 00:23:33;;;;;;;30.33;24.60;;;17.10;30.70;;;;;;5043526;28;20236;-44
2022/03/26 00:25:59;;;;;;;33.40;25.13;;;17.10;30.50;;;;;;5048331;28;20492;-46
2022/03/26 00:28:25;;;;;;;30.67;22.53;;;17.10;30.60;;;;;;5046672;28;20443;-43
2022/03/26 00:30:51;;;;;;;33.53;23.57;;;17.10;30.90;;;;;;5046462;28;20443;-44
2022/03/26 00:33:17;;;;;;;36.13;24.80;;;17.00;30.60;;;;;;5043709;28;20192;-44
2022/03/26 00:35:43;;;;;;;33.50;25.30;;;17.00;30.80;;;;;;5046985;28;20224;-45
2022/03/26 00:38:09;;;;;;;35.60;24.80;;;17.00;30.70;;;;;;5040484;28;20668;-44
2022/03/26 00:40:36;;;;;;;33.10;24.77;;;17.00;30.80;;;;;;5050532;28;20508;-44
2022/03/26 00:43:02;;;;;;;34.50;23.50;;;17.00;30.90;;;;;;5050262;28;20284;-47
2022/03/26 00:45:29;;;;;;;33.07;23.93;;;17.00;31.00;;;;;;5049292;28;20522;-44
2022/03/26 00:48:04;;;;;;;35.17;24.50;;;17.00;30.90;;;;;;5043215;28;20205;-44
2022/03/26 00:50:30;;;;;;;38.97;25.50;;;16.90;31.00;;;;;;5046847;28;20525;-47
2022/03/26 00:52:56;;;;;;;33.20;24.00;;;16.80;31.90;;;;;;5043710;28;20523;-44
2022/03/26 00:55:21;;;;;;;32.23;26.10;;;16.80;31.30;;;;;;5045296;28;20228;-43
2022/03/26 00:57:47;;;;;;;40.40;26.10;;;16.80;31.10;;;;;;5049942;28;20196;-44
2022/03/26 01:00:14;;;;;;;34.17;25.33;;;16.80;31.00;;;;;;5045075;28;20192;-46
2022/03/26 01:02:40;;;;;;;33.63;23.87;;;16.80;31.30;;;;;;5046978;28;20769;-44
2022/03/26 01:05:06;;;;;;;39.87;24.63;;;16.80;31.80;;;;;;5050249;28;20443;-45
2022/03/26 01:07:32;;;;;;;37.63;25.00;;;16.70;32.00;;;;;;5049911;28;20479;-44
2022/03/26 01:09:58;;;;;;;42.60;26.80;;;16.70;31.60;;;;;;5046427;28;20488;-45
2022/03/26 01:12:25;;;;;;;42.03;28.40;;;16.60;31.20;;;;;;5044831;28;20204;-44
2022/03/26 01:14:52;;;;;;;45.07;31.50;;;16.50;31.30;;;;;;5043387;28;20486;-45
2022/03/26 01:17:18;;;;;;;61.23;41.77;;;16.50;31.60;;;;;;5052549;28;20799;-45
2022/03/26 01:19:44;;;;;;;57.20;38.03;;;16.40;31.70;;;;;;5049507;28;20439;-45
2022/03/26 01:22:10;;;;;;;43.93;29.47;;;16.40;31.80;;;;;;5050493;28;20438;-44
2022/03/26 01:24:36;;;;;;;41.10;29.57;;;16.40;32.20;;;;;;5046898;28;20528;-46
2022/03/26 01:27:01;;;;;;;33.63;25.37;;;16.30;32.30;;;;;;5047398;28;20196;-43
2022/03/26 01:29:27;;;;;;;34.10;25.73;;;16.30;32.60;;;;;;5046184;28;20471;-48
2022/03/26 01:31:53;;;;;;;34.60;25.53;;;16.10;33.00;;;;;;5048972;28;21021;-45
2022/03/26 01:34:19;;;;;;;29.50;23.90;;;16.00;33.40;;;;;;5050542;28;20232;-45
2022/03/26 01:36:45;;;;;;;33.33;24.00;;;15.90;33.50;;;;;;5056178;28;20555;-43
2022/03/26 01:39:11;;;;;;;34.20;23.03;;;15.80;33.60;;;;;;5052267;28;20525;-44
2022/03/26 01:41:37;;;;;;;34.27;25.60;;;15.70;33.80;;;;;;5048575;28;20897;-43
2022/03/26 01:44:03;;;;;;;33.97;22.97;;;15.70;33.90;;;;;;5048871;28;20442;-45
2022/03/26 01:46:44;;;;;;;35.40;24.77;;;15.70;34.20;;;;;;5050443;28;20219;-45
2022/03/26 01:49:10;;;;;;;31.27;22.67;;;15.70;33.90;;;;;;5051471;28;20442;-43
2022/03/26 01:51:35;;;;;;;34.23;23.47;;;15.70;33.90;;;;;;5049374;28;20431;-45
2022/03/26 01:54:01;;;;;;;28.47;22.43;;;15.60;33.80;;;;;;5052434;28;20200;-45
2022/03/26 01:56:27;;;;;;;33.33;23.03;;;15.50;33.80;;;;;;5048056;28;20923;-43
2022/03/26 01:58:53;;;;;;;34.43;23.20;;;15.40;33.90;;;;;;5047508;28;20449;-44
2022/03/26 02:01:19;;;;;;;31.23;23.77;;;15.30;34.20;;;;;;5049798;28;20447;-43
2022/03/26 02:03:45;;;;;;;33.07;22.23;;;15.30;34.50;;;;;;5051193;28;20431;-45
2022/03/26 02:06:10;;;;;;;34.67;24.27;;;15.20;34.50;;;;;;5045079;28;20216;-44
2022/03/26 02:08:36;;;;;;;38.20;25.00;;;15.20;34.50;;;;;;5050644;28;20564;-46
2022/03/26 02:11:02;;;;;;;34.97;22.87;;;15.30;34.50;;;;;;5050110;28;20232;-44
2022/03/26 02:13:54;;;;;;;36.10;23.60;;;15.10;34.50;;;;;;5052782;28;20195;-44
2022/03/26 02:16:21;;;;;;;32.10;24.23;;;15.10;34.80;;;;;;5045123;28;20458;-46
2022/03/26 02:18:48;;;;;;;29.33;22.20;;;15.10;34.80;;;;;;5046199;28;20921;-43
2022/03/26 02:21:15;;;;;;;28.03;21.73;;;15.00;35.00;;;;;;5042389;28;20443;-43
2022/03/26 02:23:42;;;;;;;34.47;23.93;;;15.10;35.10;;;;;;5057488;28;20491;-43
2022/03/26 02:26:08;;;;;;;33.40;24.10;;;15.20;34.70;;;;;;5047687;28;20527;-43
2022/03/26 02:28:34;;;;;;;32.43;23.40;;;15.20;34.50;;;;;;5049573;28;20435;-43
2022/03/26 02:31:00;;;;;;;35.50;24.50;;;15.30;34.70;;;;;;5051197;28;20210;-43
2022/03/26 02:33:26;;;;;;;35.03;24.03;;;15.30;34.50;;;;;;5046700;28;20446;-43
2022/03/26 02:35:52;;;;;;;30.17;24.57;;;15.20;34.40;;;;;;5048914;28;20236;-43
2022/03/26 02:38:18;;;;;;;30.10;23.03;;;15.20;34.60;;;;;;5051901;28;20449;-43
2022/03/26 02:40:45;;;;;;;32.67;23.80;;;15.10;34.50;;;;;;5046003;28;20187;-44
2022/03/26 02:43:11;;;;;;;40.47;25.23;;;15.10;34.50;;;;;;5040060;28;20562;-44
2022/03/26 02:45:36;;;;;;;35.37;23.83;;;15.00;34.60;;;;;;5043106;28;20541;-44
2022/03/26 02:48:02;;;;;;;33.77;25.30;;;14.90;34.70;;;;;;5042624;28;20196;-48
2022/03/26 02:50:28;;;;;;;34.70;23.60;;;14.90;34.90;;;;;;5046999;28;20188;-44
2022/03/26 02:52:53;;;;;;;30.97;23.27;;;14.90;35.10;;;;;;5049299;28;20446;-44
2022/03/26 02:55:19;;;;;;;29.83;23.00;;;14.80;35.30;;;;;;5048954;28;20222;-43
2022/03/26 02:57:46;;;;;;;32.50;24.10;;;14.80;35.30;;;;;;5053327;28;20231;-46
2022/03/26 03:00:14;;;;;;;27.40;21.47;;;14.80;35.30;;;;;;5042400;28;20201;-43
2022/03/26 03:02:41;;;;;;;33.03;24.10;;;14.70;35.20;;;;;;5040868;28;20450;-43
2022/03/26 03:05:07;;;;;;;32.77;22.20;;;14.70;35.50;;;;;;5039991;28;20446;-43
2022/03/26 03:07:32;;;;;;;32.10;23.67;;;14.60;35.70;;;;;;5049446;28;21037;-43
2022/03/26 03:09:58;;;;;;;29.03;22.23;;;14.60;36.10;;;;;;5042557;28;20435;-43
2022/03/26 03:12:28;;;;;;;43.47;23.77;;;14.40;36.90;;;;;;5050075;28;20210;-43
2022/03/26 03:14:54;;;;;;;31.33;23.83;;;14.30;36.80;;;;;;5043567;28;20657;-43
2022/03/26 03:17:19;;;;;;;31.57;22.37;;;14.40;36.80;;;;;;5047772;28;20570;-43
2022/03/26 03:19:45;;;;;;;32.43;22.73;;;14.30;36.60;;;;;;5042595;28;20197;-42
2022/03/26 03:22:10;;;;;;;36.37;25.40;;;14.40;36.70;;;;;;5048437;28;20194;-43
2022/03/26 03:24:36;;;;;;;33.07;22.13;;;14.40;36.40;;;;;;5046817;28;20240;-43
2022/03/26 03:27:02;;;;;;;35.33;24.00;;;14.40;36.40;;;;;;5057114;28;20294;-43
2022/03/26 03:29:28;;;;;;;38.30;23.63;;;14.40;36.40;;;;;;5045927;28;20188;-44
2022/03/26 03:31:53;;;;;;;27.97;22.63;;;14.30;36.50;;;;;;5043874;28;20545;-44
2022/03/26 03:34:19;;;;;;;31.20;21.63;;;14.20;36.70;;;;;;5037918;28;20228;-43
2022/03/26 03:36:44;;;;;;;30.90;22.80;;;14.10;36.90;;;;;;5044894;28;20189;-43
2022/03/26 03:39:10;;;;;;;31.97;23.37;;;13.90;37.00;;;;;;5047497;28;20198;-44
2022/03/26 03:41:36;;;;;;;30.30;22.47;;;13.80;37.30;;;;;;5045380;28;20200;-44
2022/03/26 03:44:02;;;;;;;30.03;21.93;;;13.70;37.60;;;;;;5053789;28;20197;-43
2022/03/26 03:46:30;;;;;;;36.53;23.60;;;13.70;37.70;;;;;;5048159;28;20953;-43
2022/03/26 03:48:56;;;;;;;34.00;22.43;;;13.80;37.90;;;;;;5041545;28;20447;-44
2022/03/26 03:51:21;;;;;;;32.80;23.00;;;13.90;37.50;;;;;;5042005;28;20443;-44
2022/03/26 03:53:47;;;;;;;31.83;22.63;;;13.90;37.30;;;;;;5045096;28;20290;-43
2022/03/26 03:56:13;;;;;;;29.37;22.30;;;13.80;37.40;;;;;;5042269;28;20676;-42
2022/03/26 03:58:38;;;;;;;29.10;22.03;;;13.80;37.70;;;;;;5055159;28;20196;-43
2022/03/26 04:01:04;;;;;;;32.33;21.73;;;13.70;38.30;;;;;;5045594;28;20196;-44
2022/03/26 04:03:30;;;;;;;34.40;22.80;;;13.70;38.00;;;;;;5041050;28;20193;-43
2022/03/26 04:05:55;;;;;;;33.10;21.30;;;13.60;38.50;;;;;;5040374;28;20275;-44
2022/03/26 04:08:21;;;;;;;30.97;22.47;;;13.60;38.30;;;;;;5038247;28;20447;-43
2022/03/26 04:10:47;;;;;;;29.40;21.53;;;13.60;38.00;;;;;;5046283;28;20195;-43
2022/03/26 04:13:13;;;;;;;31.47;21.90;;;13.70;38.00;;;;;;5047006;28;20196;-44
2022/03/26 04:15:39;;;;;;;27.30;20.10;;;13.70;37.90;;;;;;5043448;28;20990;-43
2022/03/26 04:18:06;;;;;;;29.57;22.50;;;13.70;37.90;;;;;;5044009;28;20200;-43
2022/03/26 04:20:33;;;;;;;33.33;21.30;;;13.70;38.00;;;;;;5047285;28;20445;-44
2022/03/26 04:22:58;;;;;;;26.10;19.73;;;13.70;38.00;;;;;;5051679;28;20922;-43
2022/03/26 04:25:24;;;;;;;29.70;21.63;;;13.80;37.90;;;;;;5047472;28;20427;-43
2022/03/26 04:27:50;;;;;;;26.47;19.90;;;13.80;37.80;;;;;;5048456;28;20204;-43
2022/03/26 04:30:16;;;;;;;30.77;22.13;;;13.80;37.60;;;;;;5048672;28;20446;-45
2022/03/26 04:32:42;;;;;;;30.60;21.57;;;13.80;37.80;;;;;;5051776;28;20197;-43
2022/03/26 04:35:09;;;;;;;34.87;21.37;;;13.80;37.70;;;;;;5046570;28;20844;-43
2022/03/26 04:37:35;;;;;;;25.90;18.87;;;13.70;37.60;;;;;;5044858;28;20233;-43
2022/03/26 04:40:01;;;;;;;32.33;21.57;;;13.60;37.80;;;;;;5042399;28;20553;-45
2022/03/26 04:42:27;;;;;;;28.50;21.00;;;13.60;38.00;;;;;;5048005;28;20447;-43
2022/03/26 04:44:52;;;;;;;30.33;21.70;;;13.60;37.60;;;;;;5045299;28;20454;-43
2022/03/26 04:47:18;;;;;;;28.60;21.30;;;13.60;37.70;;;;;;5044372;28;20208;-45
2022/03/26 04:49:43;;;;;;;30.27;22.10;;;13.50;37.70;;;;;;5046456;28;20244;-44
2022/03/26 04:52:09;;;;;;;30.63;21.37;;;13.50;37.70;;;;;;5046205;28;20195;-43
2022/03/26 04:54:35;;;;;;;28.90;20.63;;;13.30;37.70;;;;;;5047791;28;20597;-43
2022/03/26 04:57:00;;;;;;;35.10;20.47;;;13.10;38.10;;;;;;5048809;28;20220;-44
2022/03/26 04:59:26;;;;;;;30.00;21.17;;;12.90;38.40;;;;;;5051617;28;20193;-44
2022/03/26 05:01:51;;;;;;;35.63;21.23;;;12.70;38.80;;;;;;5048549;28;20199;-43
2022/03/26 05:04:17;;;;;;;37.53;22.47;;;12.50;39.20;;;;;;5041751;28;20204;-43
2022/03/26 05:06:42;;;;;;;31.33;21.30;;;12.30;39.60;;;;;;5047967;28;20189;-43
2022/03/26 05:09:08;;;;;;;34.03;21.83;;;12.10;40.10;;;;;;5044917;28;20680;-43
2022/03/26 05:11:34;;;;;;;26.97;19.53;;;12.00;40.60;;;;;;5041515;28;20189;-43
2022/03/26 05:13:59;;;;;;;31.97;19.90;;;11.70;41.20;;;;;;5039231;28;20197;-43
2022/03/26 05:16:25;;;;;;;33.77;20.57;;;11.70;41.40;;;;;;5042064;28;20193;-43
2022/03/26 05:18:51;;;;;;;31.90;21.30;;;11.60;41.10;;;;;;5042892;28;21495;-44
2022/03/26 05:21:16;;;;;;;32.03;21.67;;;11.60;41.10;;;;;;5041104;28;20192;-44
2022/03/26 05:23:42;;;;;;;26.00;20.67;;;11.70;41.50;;;;;;5045838;28;20289;-43
2022/03/26 05:26:07;;;;;;;32.87;22.07;;;11.60;41.40;;;;;;5047736;28;20184;-43
2022/03/26 05:28:33;;;;;;;29.97;21.40;;;11.40;41.90;;;;;;5046101;28;20196;-43
2022/03/26 05:30:58;;;;;;;28.63;20.70;;;11.20;42.70;;;;;;5063457;28;20195;-44
2022/03/26 05:33:24;;;;;;;30.63;20.87;;;11.20;42.60;;;;;;5052713;28;20196;-43
2022/03/26 05:35:50;;;;;;;30.23;21.90;;;11.30;42.40;;;;;;5048103;28;20224;-43
2022/03/26 05:38:15;;;;;;;30.27;20.30;;;11.30;42.10;;;;;;5049163;28;20207;-43
2022/03/26 05:40:41;;;;;;;30.93;20.07;;;11.30;41.90;;;;;;5054901;28;21155;-45
2022/03/26 05:43:08;;;;;;;31.30;20.10;;;11.20;42.00;;;;;;5053013;28;20204;-44
2022/03/26 05:45:33;;;;;;;28.17;20.60;;;11.10;42.20;;;;;;5040192;28;20197;-44
2022/03/26 05:48:01;;;;;;;28.27;20.47;;;11.10;42.10;;;;;;5046240;28;20589;-43
2022/03/26 05:50:29;;;;;;;31.70;20.50;;;11.00;42.10;;;;;;5044472;28;20207;-43
2022/03/26 05:52:55;;;;;;;33.83;22.00;;;11.00;42.40;;;;;;5051300;28;20450;-43
2022/03/26 05:55:20;;;;;;;27.37;20.07;;;10.90;42.70;;;;;;5049598;28;20842;-43
2022/03/26 05:57:46;;;;;;;32.97;21.40;;;10.90;43.00;;;;;;5048579;28;20451;-43
2022/03/26 06:00:12;;;;;;;26.70;20.10;;;10.90;43.20;;;;;;5048268;28;20708;-45
2022/03/26 06:02:38;;;;;;;28.00;19.90;;;10.90;43.20;;;;;;5046561;28;20196;-43
2022/03/26 06:05:04;;;;;;;33.53;21.33;;;10.90;43.20;;;;;;5049682;28;20505;-43
2022/03/26 06:07:30;;;;;;;32.83;21.47;;;10.90;43.30;;;;;;5048006;28;20189;-46
2022/03/26 06:09:56;;;;;;;27.67;20.47;;;10.90;43.40;;;;;;5045370;28;21063;-43
2022/03/26 06:12:22;;;;;;;29.70;20.23;;;10.80;43.90;;;;;;5058815;28;20455;-43
2022/03/26 06:14:48;;;;;;;32.10;20.47;;;10.80;44.70;;;;;;5048418;28;20232;-43
2022/03/26 06:17:14;;;;;;;39.83;20.57;;;11.10;44.10;;;;;;5048267;28;20259;-43
2022/03/26 06:19:42;;;;;;;27.60;19.77;;;11.40;43.50;;;;;;5050206;28;20938;-44
2022/03/26 06:22:07;;;;;;;30.27;21.90;;;11.60;43.00;;;;;;5047783;28;20473;-42
2022/03/26 06:24:33;;;;;;;29.73;20.57;;;11.90;42.60;;;;;;5049416;28;20475;-43
2022/03/26 06:26:59;;;;;;;26.23;19.77;;;12.20;42.10;;;;;;5046938;28;20567;-43
2022/03/26 06:29:26;;;;;;;34.83;20.30;;;12.40;41.70;;;;;;5047596;28;20447;-44
2022/03/26 06:31:52;;;;;;;29.57;21.20;;;12.50;41.30;;;;;;5043515;28;20773;-44
2022/03/26 06:34:18;;;;;;;31.80;22.83;;;12.70;41.00;;;;;;5046486;28;20477;-45
2022/03/26 06:36:43;;;;;;;33.13;21.93;;;12.80;40.80;;;;;;5046815;28;20664;-43
2022/03/26 06:39:09;;;;;;;32.50;21.47;;;12.90;40.50;;;;;;5046023;28;20244;-43
2022/03/26 06:41:39;;;;;;;28.27;21.83;;;13.10;40.30;;;;;;5045897;28;20191;-43
2022/03/26 06:44:06;;;;;;;30.03;20.03;;;13.20;40.10;;;;;;5050263;28;20913;-43
2022/03/26 06:46:32;;;;;;;31.63;21.23;;;13.30;39.70;;;;;;5050437;28;20474;-43
2022/03/26 06:48:57;;;;;;;32.87;22.43;;;13.50;39.70;;;;;;5049744;28;20475;-43
2022/03/26 06:51:23;;;;;;;36.10;21.10;;;13.60;39.60;;;;;;5054803;28;20242;-44
2022/03/26 06:53:48;;;;;;;29.03;21.87;;;13.70;39.10;;;;;;5048825;28;20184;-43
2022/03/26 06:56:14;;;;;;;28.30;21.43;;;14.00;39.00;;;;;;5050235;28;20220;-44
2022/03/26 06:58:39;;;;;;;31.97;22.30;;;14.10;38.70;;;;;;5062568;28;20192;-47
2022/03/26 07:01:05;;;;;;;30.97;22.00;;;14.30;38.20;;;;;;5050115;28;20201;-44
2022/03/26 07:03:31;;;;;;;30.57;23.67;;;14.50;37.80;;;;;;5048397;28;20207;-44
2022/03/26 07:05:58;;;;;;;29.43;21.87;;;14.60;37.50;;;;;;5052576;28;20288;-43
2022/03/26 07:08:23;;;;;;;30.23;21.77;;;14.70;37.50;;;;;;5045677;28;20442;-43
2022/03/26 07:10:49;;;;;;;28.60;21.63;;;14.80;37.50;;;;;;5043267;28;20439;-44
2022/03/26 07:13:15;;;;;;;34.87;22.87;;;15.00;37.40;;;;;;5043427;28;20205;-43
2022/03/26 07:15:44;;;;;;;30.73;21.77;;;15.10;37.40;;;;;;5042865;28;20490;-43
2022/03/26 07:18:11;;;;;;;31.20;21.20;;;15.20;37.10;;;;;;5040062;28;20447;-43
2022/03/26 07:20:37;;;;;;;30.63;22.23;;;15.30;36.80;;;;;;5045645;28;20865;-43
2022/03/26 07:23:02;;;;;;;34.53;23.17;;;15.40;36.70;;;;;;5039927;28;20439;-43
2022/03/26 07:25:29;;;;;;;31.20;22.63;;;15.50;36.70;;;;;;5047527;28;20382;-43
2022/03/26 07:27:54;;;;;;;33.97;23.97;;;15.60;36.80;;;;;;5049320;28;20212;-43
2022/03/26 07:30:20;;;;;;;27.40;21.57;;;15.60;36.80;;;;;;5047380;28;20431;-44
2022/03/26 07:32:46;;;;;;;32.03;22.70;;;15.70;36.60;;;;;;5041000;28;20223;-43
2022/03/26 07:35:12;;;;;;;28.33;21.30;;;15.90;36.20;;;;;;5046418;28;20229;-44
2022/03/26 07:37:37;;;;;;;33.70;23.33;;;16.10;36.10;;;;;;5047851;28;20192;-43
2022/03/26 07:40:04;;;;;;;27.13;21.63;;;16.30;36.20;;;;;;5049404;28;20640;-43
2022/03/26 07:42:30;;;;;;;36.97;23.13;;;16.40;36.00;;;;;;5046612;28;20254;-45
2022/03/26 07:44:55;;;;;;;34.60;24.90;;;16.60;35.60;;;;;;5047642;28;20439;-45
2022/03/26 07:47:21;;;;;;;29.90;22.77;;;16.70;35.20;;;;;;5047612;28;20648;-44
2022/03/26 07:49:46;;;;;;;31.67;23.53;;;17.00;34.90;;;;;;5045291;28;20204;-45
2022/03/26 07:52:12;;;;;;;33.63;22.87;;;17.10;34.60;;;;;;5047142;28;20197;-46
2022/03/26 07:54:38;;;;;;;30.70;21.63;;;17.20;34.50;;;;;;5027274;28;20257;-45
2022/03/26 07:57:05;;;;;;;32.37;24.30;;;17.30;33.90;;;;;;5045302;28;20227;-44
2022/03/26 07:59:31;;;;;;;29.73;23.10;;;17.30;33.90;;;;;;5048976;28;20443;-44
2022/03/26 08:01:56;;;;;;;31.93;22.37;;;17.10;34.00;;;;;;5049276;28;20442;-45
2022/03/26 08:04:22;;;;;;;31.00;22.13;;;17.20;33.80;;;;;;5048437;28;21051;-46
2022/03/26 08:06:49;;;;;;;26.53;21.57;;;17.30;33.60;;;;;;5047876;28;20654;-45
2022/03/26 08:09:14;;;;;;;30.03;23.10;;;17.50;33.60;;;;;;5047020;28;20532;-44
2022/03/26 08:11:40;;;;;;;34.37;23.20;;;17.50;33.40;;;;;;5046716;28;20231;-47
2022/03/26 08:14:05;;;;;;;31.77;22.80;;;17.70;33.60;;;;;;5048425;28;20282;-45
2022/03/26 08:16:31;;;;;;;32.07;24.00;;;17.80;34.20;;;;;;5046862;28;20640;-46
2022/03/26 08:18:57;;;;;;;35.87;22.20;;;17.80;33.90;;;;;;5047256;28;20267;-45
2022/03/26 08:21:22;;;;;;;29.73;22.90;;;18.00;33.30;;;;;;5050156;28;20224;-46
2022/03/26 08:23:48;;;;;;;31.90;22.60;;;18.00;32.50;;;;;;5049255;28;20232;-48
2022/03/26 08:26:19;;;;;;;33.43;23.30;;;18.00;32.20;;;;;;5049789;28;20224;-47
2022/03/26 08:28:46;;;;;;;35.97;23.40;;;18.10;32.30;;;;;;5048404;28;20916;-46
2022/03/26 08:31:13;;;;;;;30.83;22.53;;;18.30;33.00;;;;;;5049747;28;20427;-48
2022/03/26 08:33:39;;;;;;;31.40;23.37;;;18.40;33.20;;;;;;5049912;28;20493;-46
2022/03/26 08:36:05;;;;;;;29.27;21.80;;;18.40;32.60;;;;;;5049149;28;20848;-43
2022/03/26 08:38:30;;;;;;;30.60;23.77;;;18.40;33.20;;;;;;5049099;28;20419;-44
2022/03/26 08:40:56;;;;;;;32.80;21.80;;;18.50;33.00;;;;;;5049311;28;20617;-44
2022/03/26 08:43:22;;;;;;;32.47;23.20;;;18.60;32.20;;;;;;5049469;28;20267;-46
2022/03/26 08:45:48;;;;;;;34.23;24.37;;;18.60;32.10;;;;;;5047450;28;20430;-45
2022/03/26 08:48:15;;;;;;;31.73;23.90;;;18.70;31.80;;;;;;5049421;28;20196;-44
2022/03/26 08:50:42;;;;;;;29.97;23.57;;;18.70;32.70;;;;;;5048477;28;20196;-48
2022/03/26 08:53:08;;;;;;;31.50;23.80;;;18.80;32.70;;;;;;5049001;28;20435;-45
2022/03/26 08:55:34;;;;;;;33.60;23.13;;;18.90;32.70;;;;;;5049137;28;20485;-44
2022/03/26 08:58:00;;;;;;;33.77;24.80;;;19.00;32.50;;;;;;5048071;28;20431;-44
2022/03/26 09:00:27;;;;;;;30.67;23.23;;;19.00;32.20;;;;;;5051549;28;20196;-45
2022/03/26 09:02:53;;;;;;;31.33;23.40;;;19.10;32.50;;;;;;5053249;28;20468;-44
2022/03/26 09:05:19;;;;;;;32.30;26.57;;;19.20;32.70;;;;;;5052793;28;20435;-45
2022/03/26 09:07:45;;;;;;;30.60;21.83;;;19.40;32.60;;;;;;5053172;28;20485;-45
2022/03/26 09:10:11;;;;;;;33.63;23.40;;;19.60;32.20;;;;;;5051548;28;20216;-46
2022/03/26 09:12:37;;;;;;;27.03;22.10;;;19.50;31.70;;;;;;5049297;28;21252;-46
2022/03/26 09:15:06;;;;;;;33.73;22.80;;;19.70;31.50;;;;;;5049447;28;20496;-45
2022/03/26 09:17:32;;;;;;;35.03;23.40;;;19.80;32.10;;;;;;5049308;28;20489;-47
2022/03/26 09:19:58;;;;;;;33.10;24.40;;;19.90;32.80;;;;;;5049792;28;20463;-44
2022/03/26 09:22:24;;;;;;;31.80;24.47;;;20.10;32.00;;;;;;5054036;28;20513;-45
2022/03/26 09:24:50;;;;;;;33.37;23.50;;;20.20;31.50;;;;;;5050465;28;20235;-46
2022/03/26 09:27:16;;;;;;;31.47;22.93;;;20.20;31.50;;;;;;5052459;28;20215;-48
2022/03/26 09:29:41;;;;;;;33.50;24.37;;;20.40;31.20;;;;;;5051106;28;20431;-44
2022/03/26 09:32:07;;;;;;;29.67;22.53;;;20.40;31.10;;;;;;5050995;28;20196;-45
2022/03/26 09:34:33;;;;;;;33.43;24.27;;;20.60;30.60;;;;;;5050965;28;20224;-45
2022/03/26 09:36:59;;;;;;;31.27;25.00;;;20.70;30.70;;;;;;5051488;28;20926;-45
2022/03/26 09:39:24;;;;;;;37.50;25.37;;;20.70;30.80;;;;;;5047316;28;20192;-46
2022/03/26 09:41:51;;;;;;;31.23;23.30;;;20.80;30.00;;;;;;5047529;28;20243;-44
2022/03/26 09:44:17;;;;;;;34.10;24.13;;;21.00;29.80;;;;;;5051067;28;20204;-47
2022/03/26 09:46:42;;;;;;;33.77;24.37;;;21.10;30.10;;;;;;5050794;28;20431;-48
2022/03/26 09:49:10;;;;;;;31.00;23.43;;;21.30;29.90;;;;;;5051687;28;20427;-44
2022/03/26 09:51:35;;;;;;;30.60;23.73;;;21.40;29.90;;;;;;5050942;28;20192;-44
2022/03/26 09:54:01;;;;;;;33.27;24.07;;;21.50;30.70;;;;;;5044334;28;20450;-47
2022/03/26 09:56:30;;;;;;;35.07;26.00;;;21.80;30.60;;;;;;5039944;28;20224;-45
2022/03/26 09:58:56;;;;;;;31.13;22.97;;;22.10;29.20;;;;;;5049643;28;20197;-44
2022/03/26 10:01:22;;;;;;;29.90;24.17;;;22.20;29.30;;;;;;5046041;28;20433;-45
2022/03/26 10:04:14;;;;;;;33.87;23.70;;;22.50;29.20;;;;;;5048553;28;20435;-47
2022/03/26 10:06:47;;;;;;;33.73;24.60;;;22.80;29.20;;;;;;5046701;28;20514;-48
2022/03/26 10:09:13;;;;;;;34.83;25.73;;;22.80;28.60;;;;;;5043083;28;20439;-45
2022/03/26 10:11:41;;;;;;;33.83;25.90;;;22.80;28.30;;;;;;5046872;28;20427;-44
2022/03/26 10:14:06;;;;;;;35.03;25.03;;;22.90;27.90;;;;;;5045760;28;20197;-45
2022/03/26 10:16:32;;;;;;;35.60;26.30;;;23.10;27.60;;;;;;5048382;28;20482;-44
2022/03/26 10:18:59;;;;;;;34.10;26.20;;;23.00;26.70;;;;;;5048347;28;20188;-44
2022/03/26 10:21:27;;;;;;;31.83;25.20;;;23.20;26.90;;;;;;5048101;28;20211;-44
2022/03/26 10:23:53;;;;;;;34.40;24.20;;;23.40;27.90;;;;;;5048408;28;20466;-44
2022/03/26 10:26:25;;;;;;;32.63;24.90;;;23.50;27.30;;;;;;5049753;28;20423;-46
2022/03/26 10:28:56;;;;;;;32.10;25.27;;;23.60;26.30;;;;;;5043546;28;20446;-47
2022/03/26 10:34:31;;;;;;;38.60;25.73;;;23.90;26.10;;;;;;4965478;28;20841;-47
2022/03/26 10:36:58;;;;;;;30.27;23.70;;;24.00;24.90;;;;;;4969406;28;20454;-44
2022/03/26 10:39:29;;;;;;;30.47;24.70;;;23.90;25.40;;;;;;4999970;28;20691;-44
2022/03/26 10:41:56;;;;;;;31.73;24.70;;;23.90;25.20;;;;;;5046825;28;20467;-44
2022/03/26 10:44:25;;;;;;;32.57;23.80;;;23.70;25.10;;;;;;5048514;28;20511;-44
2022/03/26 10:46:57;;;;;;;32.93;25.17;;;24.00;25.60;;;;;;5047893;28;20480;-44
2022/03/26 10:49:37;;;;;;;33.43;25.03;;;24.30;25.00;;;;;;5047176;28;20446;-47
2022/03/26 10:52:14;;;;;;;35.67;22.37;;;24.80;24.90;;;;;;5046108;28;20542;-45
2022/03/26 10:54:40;;;;;;;31.50;25.20;;;25.00;23.90;;;;;;5045264;28;20463;-44
2022/03/26 10:57:06;;;;;;;25.13;20.97;;;25.30;23.60;;;;;;5048997;28;20811;-45
2022/03/26 10:59:32;;;;;;;24.50;20.30;;;25.50;23.90;;;;;;5048571;28;20426;-45
2022/03/26 11:01:58;;;;;;;26.97;21.10;;;25.50;22.60;;;;;;5047764;28;20197;-44
2022/03/26 11:04:26;;;;;;;31.40;21.90;;;25.30;21.70;;;;;;5048164;28;20272;-45
2022/03/26 11:06:52;;;;;;;26.60;21.37;;;25.10;22.50;;;;;;5044497;28;21277;-45
2022/03/26 11:09:19;;;;;;;25.07;20.03;;;24.90;22.20;;;;;;5059023;28;20845;-45
2022/03/26 11:11:48;;;;;;;22.70;18.70;;;25.00;23.10;;;;;;5048044;28;20911;-45
2022/03/26 11:14:20;;;;;;;24.70;19.90;;;25.20;23.90;;;;;;5044504;28;20428;-44
2022/03/26 11:17:15;;;;;;;23.73;19.10;;;24.80;22.20;;;;;;5047852;28;20493;-45
2022/03/26 11:20:03;;;;;;;24.40;19.67;;;25.00;22.80;;;;;;5045373;28;20435;-46
2022/03/26 11:22:47;;;;;;;25.20;19.57;;;25.00;21.70;;;;;;5047943;28;20431;-45
2022/03/26 11:25:34;;;;;;;25.00;19.97;;;25.10;22.40;;;;;;5038091;28;20470;-44
2022/03/26 11:28:00;;;;;;;30.87;22.00;;;25.40;22.80;;;;;;5047997;28;20547;-44
2022/03/26 11:30:31;;;;;;;26.77;18.93;;;25.30;21.90;;;;;;5051034;28;21178;-44
2022/03/26 11:33:09;;;;;;;23.90;20.40;;;25.50;22.50;;;;;;5047796;28;20203;-47
2022/03/26 11:35:35;;;;;;;28.97;21.33;;;25.80;23.40;;;;;;5042537;28;20529;-46
2022/03/26 11:38:03;;;;;;;26.83;18.70;;;26.00;22.50;;;;;;5038360;28;20482;-44
2022/03/26 11:40:48;;;;;;;26.40;19.20;;;25.70;21.50;;;;;;5043184;28;20223;-45
2022/03/26 11:43:38;;;;;;;25.30;18.70;;;25.50;21.80;;;;;;5026905;28;20781;-44
2022/03/26 11:51:37;;;;;;;21.30;16.20;;;26.00;22.60;;;;;;5041950;28;20526;-44
2022/03/26 11:54:12;;;;;;;25.40;16.20;;;26.30;22.50;;;;;;5048549;28;21274;-47
2022/03/26 11:56:38;;;;;;;20.57;17.23;;;26.60;21.80;;;;;;5046269;28;20482;-44
2022/03/26 11:59:03;;;;;;;21.17;17.77;;;26.80;21.20;;;;;;5048558;28;20461;-45
2022/03/26 12:01:45;;;;;;;21.53;16.80;;;26.80;20.20;;;;;;5050548;28;20437;-45
2022/03/26 12:04:13;;;;;;;18.07;14.53;;;27.10;20.30;;;;;;5047450;28;20235;-47
2022/03/26 12:06:54;;;;;;;18.70;14.83;;;27.30;20.60;;;;;;5048268;28;20427;-47
2022/03/26 12:09:36;;;;;;;19.33;16.47;;;27.50;19.60;;;;;;5049261;28;20443;-48
2022/03/26 12:12:05;;;;;;;22.60;16.87;;;27.50;19.30;;;;;;5047791;28;20477;-50
2022/03/26 12:14:31;;;;;;;17.17;15.00;;;27.60;19.20;;;;;;5048393;28;20447;-45
2022/03/26 12:16:57;;;;;;;19.37;15.87;;;27.30;20.20;;;;;;5046815;28;20446;-45
2022/03/26 12:19:50;;;;;;;15.07;12.07;;;27.50;19.70;;;;;;5047623;28;20431;-45
2022/03/26 12:22:34;;;;;;;22.97;16.77;;;27.70;19.40;;;;;;5049045;28;20200;-47
2022/03/26 12:25:01;;;;;;;23.27;15.63;;;27.90;18.90;;;;;;5047382;28;20953;-45
2022/03/26 12:27:27;;;;;;;16.50;14.00;;;27.90;19.00;;;;;;5046910;28;20431;-45
2022/03/26 12:29:57;;;;;;;17.60;14.50;;;27.90;19.90;;;;;;5046949;28;20424;-47
2022/03/26 12:32:30;;;;;;;19.80;14.67;;;28.10;19.50;;;;;;5041915;28;20435;-47
2022/03/26 12:35:01;;;;;;;21.87;16.13;;;28.10;18.90;;;;;;5044733;28;20582;-47
2022/03/26 12:37:28;;;;;;;19.10;15.33;;;27.80;18.00;;;;;;5031070;28;20515;-45